sensor_id;sensor_type;location;lat;lon;timestamp;P1;durP1;ratioP1;P2;durP2;ratioP2
30872;SDS011;17579;42.690;2.586;2022-11-02T00:00:49;2.05;;;0.80;;
30872;SDS011;17579;42.690;2.586;2022-11-02T00:03:15;2.28;;;0.95;;
30872;SDS011;17579;42.690;2.586;2022-11-02T00:05:41;1.38;;;0.70;;
30872;SDS011;17579;42.690;2.586;2022-11-02T00:08:06;0.60;;;0.55;;
30872;SDS011;17579;42.690;2.586;2022-11-02T00:10:32;1.15;;;0.70;;
30872;SDS011;17579;42.690;2.586;2022-11-02T00:12:58;1.83;;;0.77;;
30872;SDS011;17579;42.690;2.586;2022-11-02T00:15:25;1.10;;;0.77;;
30872;SDS011;17579;42.690;2.586;2022-11-02T00:17:55;2.65;;;1.02;;
30872;SDS011;17579;42.690;2.586;2022-11-02T00:20:25;0.90;;;0.50;;
30872;SDS011;17579;42.690;2.586;2022-11-02T00:22:52;1.00;;;0.50;;
30872;SDS011;17579;42.690;2.586;2022-11-02T00:25:24;1.30;;;0.75;;
30872;SDS011;17579;42.690;2.586;2022-11-02T00:27:52;1.50;;;0.93;;
30872;SDS011;17579;42.690;2.586;2022-11-02T00:30:17;2.05;;;0.73;;
30872;SDS011;17579;42.690;2.586;2022-11-02T00:32:44;0.93;;;0.60;;
30872;SDS011;17579;42.690;2.586;2022-11-02T00:35:09;0.50;;;0.50;;
30872;SDS011;17579;42.690;2.586;2022-11-02T00:37:35;1.55;;;0.93;;
30872;SDS011;17579;42.690;2.586;2022-11-02T00:40:01;1.42;;;0.60;;
30872;SDS011;17579;42.690;2.586;2022-11-02T00:42:27;0.73;;;0.63;;
30872;SDS011;17579;42.690;2.586;2022-11-02T00:44:53;1.65;;;0.80;;
30872;SDS011;17579;42.690;2.586;2022-11-02T00:47:18;1.58;;;0.75;;
30872;SDS011;17579;42.690;2.586;2022-11-02T00:49:44;1.88;;;0.63;;
30872;SDS011;17579;42.690;2.586;2022-11-02T00:52:09;1.02;;;0.65;;
30872;SDS011;17579;42.690;2.586;2022-11-02T00:54:35;1.75;;;0.85;;
30872;SDS011;17579;42.690;2.586;2022-11-02T00:57:00;1.05;;;0.65;;
30872;SDS011;17579;42.690;2.586;2022-11-02T00:59:26;0.88;;;0.70;;
30872;SDS011;17579;42.690;2.586;2022-11-02T01:01:52;1.15;;;0.55;;
30872;SDS011;17579;42.690;2.586;2022-11-02T01:04:17;0.82;;;0.63;;
30872;SDS011;17579;42.690;2.586;2022-11-02T01:06:43;1.05;;;0.70;;
30872;SDS011;17579;42.690;2.586;2022-11-02T01:09:09;0.73;;;0.40;;
30872;SDS011;17579;42.690;2.586;2022-11-02T01:11:35;1.15;;;0.77;;
30872;SDS011;17579;42.690;2.586;2022-11-02T01:14:01;1.63;;;0.60;;
30872;SDS011;17579;42.690;2.586;2022-11-02T01:16:27;4.05;;;0.98;;
30872;SDS011;17579;42.690;2.586;2022-11-02T01:18:53;1.98;;;0.80;;
30872;SDS011;17579;42.690;2.586;2022-11-02T01:21:19;0.80;;;0.73;;
30872;SDS011;17579;42.690;2.586;2022-11-02T01:23:45;2.03;;;0.68;;
30872;SDS011;17579;42.690;2.586;2022-11-02T01:26:11;2.00;;;0.70;;
30872;SDS011;17579;42.690;2.586;2022-11-02T01:28:37;0.60;;;0.60;;
30872;SDS011;17579;42.690;2.586;2022-11-02T01:31:04;0.57;;;0.50;;
30872;SDS011;17579;42.690;2.586;2022-11-02T01:33:30;1.00;;;0.75;;
30872;SDS011;17579;42.690;2.586;2022-11-02T01:35:57;0.90;;;0.70;;
30872;SDS011;17579;42.690;2.586;2022-11-02T01:38:22;1.48;;;0.95;;
30872;SDS011;17579;42.690;2.586;2022-11-02T01:40:48;0.50;;;0.50;;
30872;SDS011;17579;42.690;2.586;2022-11-02T01:48:55;1.60;;;0.50;;
30872;SDS011;17579;42.690;2.586;2022-11-02T01:51:48;1.08;;;0.50;;
30872;SDS011;17579;42.690;2.586;2022-11-02T01:54:23;0.57;;;0.57;;
30872;SDS011;17579;42.690;2.586;2022-11-02T01:56:52;2.00;;;0.65;;
30872;SDS011;17579;42.690;2.586;2022-11-02T01:59:31;1.58;;;0.90;;
30872;SDS011;17579;42.690;2.586;2022-11-02T02:02:03;1.95;;;0.80;;
30872;SDS011;17579;42.690;2.586;2022-11-02T02:04:33;0.98;;;0.70;;
30872;SDS011;17579;42.690;2.586;2022-11-02T02:06:59;2.03;;;0.90;;
30872;SDS011;17579;42.690;2.586;2022-11-02T02:09:25;0.82;;;0.60;;
30872;SDS011;17579;42.690;2.586;2022-11-02T02:11:52;0.90;;;0.50;;
30872;SDS011;17579;42.690;2.586;2022-11-02T02:14:18;0.65;;;0.60;;
30872;SDS011;17579;42.690;2.586;2022-11-02T02:22:31;0.88;;;0.45;;
30872;SDS011;17579;42.690;2.586;2022-11-02T02:34:14;0.70;;;0.70;;
30872;SDS011;17579;42.690;2.586;2022-11-02T02:36:46;1.33;;;0.90;;
30872;SDS011;17579;42.690;2.586;2022-11-02T02:39:24;1.25;;;0.90;;
30872;SDS011;17579;42.690;2.586;2022-11-02T02:44:57;1.10;;;0.77;;
30872;SDS011;17579;42.690;2.586;2022-11-02T02:47:35;2.13;;;0.57;;
30872;SDS011;17579;42.690;2.586;2022-11-02T02:50:10;1.02;;;0.73;;
30872;SDS011;17579;42.690;2.586;2022-11-02T02:52:44;3.28;;;1.00;;
30872;SDS011;17579;42.690;2.586;2022-11-02T02:55:17;2.25;;;0.73;;
30872;SDS011;17579;42.690;2.586;2022-11-02T02:57:47;2.78;;;1.17;;
30872;SDS011;17579;42.690;2.586;2022-11-02T03:00:15;2.78;;;0.52;;
30872;SDS011;17579;42.690;2.586;2022-11-02T03:02:42;2.05;;;0.95;;
30872;SDS011;17579;42.690;2.586;2022-11-02T03:05:26;3.22;;;0.82;;
30872;SDS011;17579;42.690;2.586;2022-11-02T03:07:55;1.77;;;0.60;;
30872;SDS011;17579;42.690;2.586;2022-11-02T03:10:29;2.75;;;0.70;;
30872;SDS011;17579;42.690;2.586;2022-11-02T03:16:04;1.58;;;0.75;;
30872;SDS011;17579;42.690;2.586;2022-11-02T03:18:46;0.82;;;0.60;;
30872;SDS011;17579;42.690;2.586;2022-11-02T03:24:17;0.80;;;0.70;;
30872;SDS011;17579;42.690;2.586;2022-11-02T03:27:03;2.15;;;0.63;;
30872;SDS011;17579;42.690;2.586;2022-11-02T03:32:23;1.92;;;1.00;;
30872;SDS011;17579;42.690;2.586;2022-11-02T03:34:54;2.17;;;1.00;;
30872;SDS011;17579;42.690;2.586;2022-11-02T03:37:30;1.17;;;0.68;;
30872;SDS011;17579;42.690;2.586;2022-11-02T03:40:08;1.88;;;0.88;;
30872;SDS011;17579;42.690;2.586;2022-11-02T03:42:44;3.75;;;0.90;;
30872;SDS011;17579;42.690;2.586;2022-11-02T03:45:13;2.00;;;1.08;;
30872;SDS011;17579;42.690;2.586;2022-11-02T03:47:44;1.83;;;0.80;;
30872;SDS011;17579;42.690;2.586;2022-11-02T03:50:15;1.90;;;0.60;;
30872;SDS011;17579;42.690;2.586;2022-11-02T03:52:46;1.80;;;1.02;;
30872;SDS011;17579;42.690;2.586;2022-11-02T03:55:17;2.72;;;0.85;;
30872;SDS011;17579;42.690;2.586;2022-11-02T03:57:45;1.33;;;0.70;;
30872;SDS011;17579;42.690;2.586;2022-11-02T04:00:17;1.60;;;0.90;;
30872;SDS011;17579;42.690;2.586;2022-11-02T04:02:47;1.67;;;0.90;;
30872;SDS011;17579;42.690;2.586;2022-11-02T04:05:15;1.50;;;0.80;;
30872;SDS011;17579;42.690;2.586;2022-11-02T04:07:42;1.73;;;1.00;;
30872;SDS011;17579;42.690;2.586;2022-11-02T04:10:24;4.57;;;1.17;;
30872;SDS011;17579;42.690;2.586;2022-11-02T04:12:49;2.20;;;0.80;;
30872;SDS011;17579;42.690;2.586;2022-11-02T04:15:27;2.20;;;0.90;;
30872;SDS011;17579;42.690;2.586;2022-11-02T04:17:52;1.23;;;0.80;;
30872;SDS011;17579;42.690;2.586;2022-11-02T04:20:30;1.85;;;0.95;;
30872;SDS011;17579;42.690;2.586;2022-11-02T04:22:55;1.42;;;0.63;;
30872;SDS011;17579;42.690;2.586;2022-11-02T04:25:32;2.60;;;0.90;;
30872;SDS011;17579;42.690;2.586;2022-11-02T04:28:04;3.10;;;0.90;;
30872;SDS011;17579;42.690;2.586;2022-11-02T04:30:32;3.42;;;1.05;;
30872;SDS011;17579;42.690;2.586;2022-11-02T04:32:57;3.80;;;1.00;;
30872;SDS011;17579;42.690;2.586;2022-11-02T04:35:35;2.97;;;0.80;;
30872;SDS011;17579;42.690;2.586;2022-11-02T04:38:02;3.05;;;1.25;;
30872;SDS011;17579;42.690;2.586;2022-11-02T04:40:40;4.53;;;1.25;;
30872;SDS011;17579;42.690;2.586;2022-11-02T04:43:06;1.80;;;0.80;;
30872;SDS011;17579;42.690;2.586;2022-11-02T04:45:31;5.55;;;1.02;;
30872;SDS011;17579;42.690;2.586;2022-11-02T04:48:06;4.72;;;1.25;;
30872;SDS011;17579;42.690;2.586;2022-11-02T04:50:33;3.50;;;0.98;;
30872;SDS011;17579;42.690;2.586;2022-11-02T04:53:01;2.60;;;0.98;;
30872;SDS011;17579;42.690;2.586;2022-11-02T04:55:29;1.40;;;1.00;;
30872;SDS011;17579;42.690;2.586;2022-11-02T04:57:54;1.52;;;1.05;;
30872;SDS011;17579;42.690;2.586;2022-11-02T05:00:20;1.83;;;1.00;;
30872;SDS011;17579;42.690;2.586;2022-11-02T05:02:46;2.05;;;1.02;;
30872;SDS011;17579;42.690;2.586;2022-11-02T05:05:13;2.60;;;1.17;;
30872;SDS011;17579;42.690;2.586;2022-11-02T05:07:40;2.53;;;0.88;;
30872;SDS011;17579;42.690;2.586;2022-11-02T05:10:05;3.28;;;1.00;;
30872;SDS011;17579;42.690;2.586;2022-11-02T05:12:31;2.08;;;0.95;;
30872;SDS011;17579;42.690;2.586;2022-11-02T05:14:57;3.25;;;1.40;;
30872;SDS011;17579;42.690;2.586;2022-11-02T05:17:22;3.63;;;1.08;;
30872;SDS011;17579;42.690;2.586;2022-11-02T05:19:48;1.90;;;0.90;;
30872;SDS011;17579;42.690;2.586;2022-11-02T05:22:13;2.83;;;1.13;;
30872;SDS011;17579;42.690;2.586;2022-11-02T05:24:39;3.53;;;1.20;;
30872;SDS011;17579;42.690;2.586;2022-11-02T05:27:04;3.17;;;0.80;;
30872;SDS011;17579;42.690;2.586;2022-11-02T05:29:30;3.60;;;0.93;;
30872;SDS011;17579;42.690;2.586;2022-11-02T05:31:56;1.60;;;1.10;;
30872;SDS011;17579;42.690;2.586;2022-11-02T05:34:22;1.70;;;0.85;;
30872;SDS011;17579;42.690;2.586;2022-11-02T05:36:47;1.42;;;0.88;;
30872;SDS011;17579;42.690;2.586;2022-11-02T05:39:14;2.17;;;0.88;;
30872;SDS011;17579;42.690;2.586;2022-11-02T05:41:39;3.35;;;1.10;;
30872;SDS011;17579;42.690;2.586;2022-11-02T05:44:08;2.75;;;0.90;;
30872;SDS011;17579;42.690;2.586;2022-11-02T05:46:34;4.82;;;1.27;;
30872;SDS011;17579;42.690;2.586;2022-11-02T05:49:00;4.47;;;1.10;;
30872;SDS011;17579;42.690;2.586;2022-11-02T05:51:25;2.70;;;1.02;;
30872;SDS011;17579;42.690;2.586;2022-11-02T05:53:50;1.60;;;1.02;;
30872;SDS011;17579;42.690;2.586;2022-11-02T05:56:16;4.93;;;0.98;;
30872;SDS011;17579;42.690;2.586;2022-11-02T05:58:41;3.00;;;1.20;;
30872;SDS011;17579;42.690;2.586;2022-11-02T06:01:07;2.00;;;0.90;;
30872;SDS011;17579;42.690;2.586;2022-11-02T06:03:35;2.28;;;0.95;;
30872;SDS011;17579;42.690;2.586;2022-11-02T06:06:02;2.80;;;1.05;;
30872;SDS011;17579;42.690;2.586;2022-11-02T06:08:35;1.48;;;0.80;;
30872;SDS011;17579;42.690;2.586;2022-11-02T06:11:05;3.40;;;1.35;;
30872;SDS011;17579;42.690;2.586;2022-11-02T06:13:33;3.40;;;1.10;;
30872;SDS011;17579;42.690;2.586;2022-11-02T06:15:59;2.88;;;0.90;;
30872;SDS011;17579;42.690;2.586;2022-11-02T06:18:25;4.28;;;1.15;;
30872;SDS011;17579;42.690;2.586;2022-11-02T06:20:51;2.83;;;1.10;;
30872;SDS011;17579;42.690;2.586;2022-11-02T06:23:17;3.90;;;0.95;;
30872;SDS011;17579;42.690;2.586;2022-11-02T06:25:43;3.30;;;1.02;;
30872;SDS011;17579;42.690;2.586;2022-11-02T06:28:14;1.45;;;0.80;;
30872;SDS011;17579;42.690;2.586;2022-11-02T06:30:41;2.33;;;1.00;;
30872;SDS011;17579;42.690;2.586;2022-11-02T06:33:07;2.40;;;0.77;;
30872;SDS011;17579;42.690;2.586;2022-11-02T06:35:32;3.05;;;1.20;;
30872;SDS011;17579;42.690;2.586;2022-11-02T06:37:58;2.38;;;1.00;;
30872;SDS011;17579;42.690;2.586;2022-11-02T06:40:24;4.43;;;1.20;;
30872;SDS011;17579;42.690;2.586;2022-11-02T06:42:53;2.13;;;1.10;;
30872;SDS011;17579;42.690;2.586;2022-11-02T06:45:23;3.88;;;1.10;;
30872;SDS011;17579;42.690;2.586;2022-11-02T06:47:48;3.22;;;1.17;;
30872;SDS011;17579;42.690;2.586;2022-11-02T06:50:14;2.08;;;1.17;;
30872;SDS011;17579;42.690;2.586;2022-11-02T06:52:43;1.67;;;0.85;;
30872;SDS011;17579;42.690;2.586;2022-11-02T06:55:11;1.88;;;1.00;;
30872;SDS011;17579;42.690;2.586;2022-11-02T06:57:37;2.28;;;0.77;;
30872;SDS011;17579;42.690;2.586;2022-11-02T07:00:04;2.25;;;1.10;;
30872;SDS011;17579;42.690;2.586;2022-11-02T07:02:32;1.73;;;1.15;;
30872;SDS011;17579;42.690;2.586;2022-11-02T07:04:57;3.10;;;1.10;;
30872;SDS011;17579;42.690;2.586;2022-11-02T07:07:23;3.83;;;1.10;;
30872;SDS011;17579;42.690;2.586;2022-11-02T07:09:49;2.10;;;0.65;;
30872;SDS011;17579;42.690;2.586;2022-11-02T07:12:15;3.22;;;1.20;;
30872;SDS011;17579;42.690;2.586;2022-11-02T07:14:40;4.53;;;1.23;;
30872;SDS011;17579;42.690;2.586;2022-11-02T07:17:06;2.63;;;1.02;;
30872;SDS011;17579;42.690;2.586;2022-11-02T07:19:31;2.65;;;0.80;;
30872;SDS011;17579;42.690;2.586;2022-11-02T07:21:57;3.40;;;1.20;;
30872;SDS011;17579;42.690;2.586;2022-11-02T07:24:23;4.00;;;0.93;;
30872;SDS011;17579;42.690;2.586;2022-11-02T07:26:48;1.58;;;0.90;;
30872;SDS011;17579;42.690;2.586;2022-11-02T07:29:15;2.50;;;0.98;;
30872;SDS011;17579;42.690;2.586;2022-11-02T07:31:42;1.13;;;0.70;;
30872;SDS011;17579;42.690;2.586;2022-11-02T07:34:08;2.70;;;1.23;;
30872;SDS011;17579;42.690;2.586;2022-11-02T07:36:34;2.85;;;1.25;;
30872;SDS011;17579;42.690;2.586;2022-11-02T07:39:00;1.98;;;0.98;;
30872;SDS011;17579;42.690;2.586;2022-11-02T07:41:25;2.50;;;1.08;;
30872;SDS011;17579;42.690;2.586;2022-11-02T07:43:51;2.53;;;1.00;;
30872;SDS011;17579;42.690;2.586;2022-11-02T07:46:16;4.15;;;1.27;;
30872;SDS011;17579;42.690;2.586;2022-11-02T07:48:42;2.25;;;0.90;;
30872;SDS011;17579;42.690;2.586;2022-11-02T07:51:08;3.08;;;1.15;;
30872;SDS011;17579;42.690;2.586;2022-11-02T07:53:35;2.35;;;1.17;;
30872;SDS011;17579;42.690;2.586;2022-11-02T07:56:01;1.58;;;0.88;;
30872;SDS011;17579;42.690;2.586;2022-11-02T07:58:28;3.50;;;1.30;;
30872;SDS011;17579;42.690;2.586;2022-11-02T08:00:55;4.13;;;1.38;;
30872;SDS011;17579;42.690;2.586;2022-11-02T08:03:22;4.13;;;1.15;;
30872;SDS011;17579;42.690;2.586;2022-11-02T08:05:47;4.90;;;1.00;;
30872;SDS011;17579;42.690;2.586;2022-11-02T08:08:20;3.10;;;1.10;;
30872;SDS011;17579;42.690;2.586;2022-11-02T08:10:47;3.95;;;1.10;;
30872;SDS011;17579;42.690;2.586;2022-11-02T08:13:16;3.50;;;0.82;;
30872;SDS011;17579;42.690;2.586;2022-11-02T08:15:47;3.08;;;1.15;;
30872;SDS011;17579;42.690;2.586;2022-11-02T08:18:18;1.58;;;0.77;;
30872;SDS011;17579;42.690;2.586;2022-11-02T08:20:45;1.85;;;0.90;;
30872;SDS011;17579;42.690;2.586;2022-11-02T08:23:12;3.10;;;1.27;;
30872;SDS011;17579;42.690;2.586;2022-11-02T08:25:42;3.50;;;1.48;;
30872;SDS011;17579;42.690;2.586;2022-11-02T08:28:26;1.90;;;1.10;;
30872;SDS011;17579;42.690;2.586;2022-11-02T08:30:56;2.20;;;0.90;;
30872;SDS011;17579;42.690;2.586;2022-11-02T08:33:22;3.15;;;1.15;;
30872;SDS011;17579;42.690;2.586;2022-11-02T08:35:48;4.93;;;1.30;;
30872;SDS011;17579;42.690;2.586;2022-11-02T08:38:14;2.45;;;0.90;;
30872;SDS011;17579;42.690;2.586;2022-11-02T08:40:41;5.57;;;1.15;;
30872;SDS011;17579;42.690;2.586;2022-11-02T08:43:08;5.05;;;1.25;;
30872;SDS011;17579;42.690;2.586;2022-11-02T08:45:36;2.58;;;1.35;;
30872;SDS011;17579;42.690;2.586;2022-11-02T08:48:03;2.88;;;1.05;;
30872;SDS011;17579;42.690;2.586;2022-11-02T08:50:30;1.40;;;0.70;;
30872;SDS011;17579;42.690;2.586;2022-11-02T08:52:55;1.95;;;0.90;;
30872;SDS011;17579;42.690;2.586;2022-11-02T08:55:21;3.15;;;0.77;;
30872;SDS011;17579;42.690;2.586;2022-11-02T08:57:51;2.03;;;0.88;;
30872;SDS011;17579;42.690;2.586;2022-11-02T09:00:22;4.18;;;0.98;;
30872;SDS011;17579;42.690;2.586;2022-11-02T09:05:29;1.48;;;1.00;;
30872;SDS011;17579;42.690;2.586;2022-11-02T09:08:06;2.40;;;0.90;;
30872;SDS011;17579;42.690;2.586;2022-11-02T09:10:35;2.50;;;0.77;;
30872;SDS011;17579;42.690;2.586;2022-11-02T09:13:02;4.43;;;1.25;;
30872;SDS011;17579;42.690;2.586;2022-11-02T09:15:31;3.72;;;1.00;;
30872;SDS011;17579;42.690;2.586;2022-11-02T09:17:58;1.88;;;0.90;;
30872;SDS011;17579;42.690;2.586;2022-11-02T09:20:23;2.70;;;1.05;;
30872;SDS011;17579;42.690;2.586;2022-11-02T09:22:49;1.52;;;0.90;;
30872;SDS011;17579;42.690;2.586;2022-11-02T09:25:15;4.32;;;1.17;;
30872;SDS011;17579;42.690;2.586;2022-11-02T09:27:41;3.35;;;0.80;;
30872;SDS011;17579;42.690;2.586;2022-11-02T09:30:07;3.08;;;1.02;;
30872;SDS011;17579;42.690;2.586;2022-11-02T09:32:34;3.22;;;0.80;;
30872;SDS011;17579;42.690;2.586;2022-11-02T09:35:00;1.85;;;0.73;;
30872;SDS011;17579;42.690;2.586;2022-11-02T09:37:27;2.25;;;1.00;;
30872;SDS011;17579;42.690;2.586;2022-11-02T09:39:54;3.20;;;1.23;;
30872;SDS011;17579;42.690;2.586;2022-11-02T09:42:24;4.57;;;1.38;;
30872;SDS011;17579;42.690;2.586;2022-11-02T09:45:05;4.10;;;1.17;;
30872;SDS011;17579;42.690;2.586;2022-11-02T09:47:40;2.35;;;0.73;;
30872;SDS011;17579;42.690;2.586;2022-11-02T09:50:13;2.05;;;0.95;;
30872;SDS011;17579;42.690;2.586;2022-11-02T09:52:43;4.10;;;1.00;;
30872;SDS011;17579;42.690;2.586;2022-11-02T09:55:14;1.95;;;0.98;;
30872;SDS011;17579;42.690;2.586;2022-11-02T09:57:44;1.55;;;0.93;;
30872;SDS011;17579;42.690;2.586;2022-11-02T10:00:15;4.55;;;1.15;;
30872;SDS011;17579;42.690;2.586;2022-11-02T10:05:30;2.50;;;1.00;;
30872;SDS011;17579;42.690;2.586;2022-11-02T10:08:29;4.28;;;1.10;;
30872;SDS011;17579;42.690;2.586;2022-11-02T10:11:19;1.33;;;1.10;;
30872;SDS011;17579;42.690;2.586;2022-11-02T10:13:59;2.08;;;1.10;;
30872;SDS011;17579;42.690;2.586;2022-11-02T10:16:35;1.90;;;0.93;;
30872;SDS011;17579;42.690;2.586;2022-11-02T10:19:15;2.70;;;1.23;;
30872;SDS011;17579;42.690;2.586;2022-11-02T10:21:46;1.15;;;0.77;;
30872;SDS011;17579;42.690;2.586;2022-11-02T10:24:34;1.55;;;1.00;;
30872;SDS011;17579;42.690;2.586;2022-11-02T10:27:16;1.25;;;0.70;;
30872;SDS011;17579;42.690;2.586;2022-11-02T10:32:30;3.15;;;1.15;;
30872;SDS011;17579;42.690;2.586;2022-11-02T10:34:59;3.33;;;1.00;;
30872;SDS011;17579;42.690;2.586;2022-11-02T10:37:32;2.58;;;1.10;;
30872;SDS011;17579;42.690;2.586;2022-11-02T10:46:36;2.03;;;1.08;;
30872;SDS011;17579;42.690;2.586;2022-11-02T10:49:20;2.75;;;1.30;;
30872;SDS011;17579;42.690;2.586;2022-11-02T10:52:12;2.17;;;0.88;;
30872;SDS011;17579;42.690;2.586;2022-11-02T10:54:40;3.20;;;1.38;;
30872;SDS011;17579;42.690;2.586;2022-11-02T10:57:12;1.63;;;0.90;;
30872;SDS011;17579;42.690;2.586;2022-11-02T10:59:42;3.17;;;1.45;;
30872;SDS011;17579;42.690;2.586;2022-11-02T11:02:12;1.08;;;0.82;;
30872;SDS011;17579;42.690;2.586;2022-11-02T11:04:38;4.00;;;1.27;;
30872;SDS011;17579;42.690;2.586;2022-11-02T11:07:06;3.47;;;1.20;;
30872;SDS011;17579;42.690;2.586;2022-11-02T11:12:29;2.35;;;1.23;;
30872;SDS011;17579;42.690;2.586;2022-11-02T11:15:00;1.67;;;0.93;;
30872;SDS011;17579;42.690;2.586;2022-11-02T11:17:33;3.95;;;1.10;;
30872;SDS011;17579;42.690;2.586;2022-11-02T11:20:02;1.75;;;0.85;;
30872;SDS011;17579;42.690;2.586;2022-11-02T11:22:33;3.35;;;1.05;;
30872;SDS011;17579;42.690;2.586;2022-11-02T11:27:47;1.23;;;0.82;;
30872;SDS011;17579;42.690;2.586;2022-11-02T11:30:27;1.23;;;0.90;;
30872;SDS011;17579;42.690;2.586;2022-11-02T11:32:54;1.80;;;0.90;;
30872;SDS011;17579;42.690;2.586;2022-11-02T11:35:22;1.50;;;0.93;;
30872;SDS011;17579;42.690;2.586;2022-11-02T11:37:56;1.42;;;0.77;;
30872;SDS011;17579;42.690;2.586;2022-11-02T11:40:23;1.95;;;1.05;;
30872;SDS011;17579;42.690;2.586;2022-11-02T11:42:53;1.63;;;1.00;;
30872;SDS011;17579;42.690;2.586;2022-11-02T11:45:24;2.45;;;1.08;;
30872;SDS011;17579;42.690;2.586;2022-11-02T11:47:55;2.95;;;1.27;;
30872;SDS011;17579;42.690;2.586;2022-11-02T11:50:27;1.38;;;0.98;;
30872;SDS011;17579;42.690;2.586;2022-11-02T11:53:06;1.35;;;1.05;;
30872;SDS011;17579;42.690;2.586;2022-11-02T11:55:52;2.35;;;1.15;;
30872;SDS011;17579;42.690;2.586;2022-11-02T11:58:28;2.03;;;1.25;;
30872;SDS011;17579;42.690;2.586;2022-11-02T12:03:56;2.55;;;1.10;;
30872;SDS011;17579;42.690;2.586;2022-11-02T12:09:30;2.40;;;1.30;;
30872;SDS011;17579;42.690;2.586;2022-11-02T12:15:02;1.60;;;0.90;;
30872;SDS011;17579;42.690;2.586;2022-11-02T12:17:46;1.17;;;0.98;;
30872;SDS011;17579;42.690;2.586;2022-11-02T12:29:10;1.67;;;0.95;;
30872;SDS011;17579;42.690;2.586;2022-11-02T12:32:10;5.03;;;1.05;;
30872;SDS011;17579;42.690;2.586;2022-11-02T12:35:02;1.13;;;1.00;;
30872;SDS011;17579;42.690;2.586;2022-11-02T12:40:57;1.88;;;1.10;;
30872;SDS011;17579;42.690;2.586;2022-11-02T12:43:38;1.92;;;0.90;;
30872;SDS011;17579;42.690;2.586;2022-11-02T12:54:48;2.17;;;1.25;;
30872;SDS011;17579;42.690;2.586;2022-11-02T12:57:17;1.30;;;0.80;;
30872;SDS011;17579;42.690;2.586;2022-11-02T12:59:45;2.35;;;1.15;;
30872;SDS011;17579;42.690;2.586;2022-11-02T13:02:41;3.80;;;0.90;;
30872;SDS011;17579;42.690;2.586;2022-11-02T13:05:26;1.65;;;1.00;;
30872;SDS011;17579;42.690;2.586;2022-11-02T13:08:08;2.00;;;1.00;;
30872;SDS011;17579;42.690;2.586;2022-11-02T13:10:43;1.90;;;0.90;;
30872;SDS011;17579;42.690;2.586;2022-11-02T13:13:13;1.52;;;0.90;;
30872;SDS011;17579;42.690;2.586;2022-11-02T13:15:42;1.20;;;0.90;;
30872;SDS011;17579;42.690;2.586;2022-11-02T13:20:55;1.85;;;0.90;;
30872;SDS011;17579;42.690;2.586;2022-11-02T13:32:13;1.58;;;0.90;;
30872;SDS011;17579;42.690;2.586;2022-11-02T13:34:54;2.67;;;0.90;;
30872;SDS011;17579;42.690;2.586;2022-11-02T13:37:21;1.88;;;0.80;;
30872;SDS011;17579;42.690;2.586;2022-11-02T13:39:56;0.88;;;0.75;;
30872;SDS011;17579;42.690;2.586;2022-11-02T13:42:38;1.98;;;0.90;;
30872;SDS011;17579;42.690;2.586;2022-11-02T13:51:10;0.73;;;0.55;;
30872;SDS011;17579;42.690;2.586;2022-11-02T13:53:47;0.88;;;0.55;;
30872;SDS011;17579;42.690;2.586;2022-11-02T13:56:21;2.80;;;0.90;;
30872;SDS011;17579;42.690;2.586;2022-11-02T14:01:45;1.02;;;0.90;;
30872;SDS011;17579;42.690;2.586;2022-11-02T14:04:13;1.17;;;0.80;;
30872;SDS011;17579;42.690;2.586;2022-11-02T14:09:35;1.35;;;0.73;;
30872;SDS011;17579;42.690;2.586;2022-11-02T14:20:37;3.00;;;0.95;;
30872;SDS011;17579;42.690;2.586;2022-11-02T14:25:58;2.00;;;1.20;;
30872;SDS011;17579;42.690;2.586;2022-11-02T14:28:31;2.97;;;1.08;;
30872;SDS011;17579;42.690;2.586;2022-11-02T14:31:22;0.95;;;0.80;;
30872;SDS011;17579;42.690;2.586;2022-11-02T14:39:48;2.67;;;1.02;;
30872;SDS011;17579;42.690;2.586;2022-11-02T14:45:28;1.80;;;0.70;;
30872;SDS011;17579;42.690;2.586;2022-11-02T14:48:18;2.85;;;1.30;;
30872;SDS011;17579;42.690;2.586;2022-11-02T14:50:55;1.60;;;1.00;;
30872;SDS011;17579;42.690;2.586;2022-11-02T14:53:28;3.28;;;1.27;;
30872;SDS011;17579;42.690;2.586;2022-11-02T14:55:57;1.17;;;0.82;;
30872;SDS011;17579;42.690;2.586;2022-11-02T14:58:23;1.25;;;0.93;;
30872;SDS011;17579;42.690;2.586;2022-11-02T15:01:00;1.75;;;1.10;;
30872;SDS011;17579;42.690;2.586;2022-11-02T15:03:30;1.10;;;1.00;;
30872;SDS011;17579;42.690;2.586;2022-11-02T15:08:58;1.52;;;0.90;;
30872;SDS011;17579;42.690;2.586;2022-11-02T15:17:00;3.22;;;1.02;;
30872;SDS011;17579;42.690;2.586;2022-11-02T15:19:37;1.27;;;0.80;;
30872;SDS011;17579;42.690;2.586;2022-11-02T15:24:55;0.98;;;0.80;;
30872;SDS011;17579;42.690;2.586;2022-11-02T15:27:25;3.42;;;0.90;;
30872;SDS011;17579;42.690;2.586;2022-11-02T15:29:52;0.93;;;0.73;;
30872;SDS011;17579;42.690;2.586;2022-11-02T15:32:19;0.88;;;0.80;;
30872;SDS011;17579;42.690;2.586;2022-11-02T15:34:50;1.05;;;0.90;;
30872;SDS011;17579;42.690;2.586;2022-11-02T15:37:19;1.80;;;0.93;;
30872;SDS011;17579;42.690;2.586;2022-11-02T15:40:08;4.47;;;0.80;;
30872;SDS011;17579;42.690;2.586;2022-11-02T15:42:51;2.58;;;0.95;;
30872;SDS011;17579;42.690;2.586;2022-11-02T15:54:22;1.83;;;1.08;;
30872;SDS011;17579;42.690;2.586;2022-11-02T16:00:09;1.90;;;0.85;;
30872;SDS011;17579;42.690;2.586;2022-11-02T16:02:39;1.15;;;0.60;;
30872;SDS011;17579;42.690;2.586;2022-11-02T16:05:18;1.67;;;0.90;;
30872;SDS011;17579;42.690;2.586;2022-11-02T16:07:47;1.65;;;0.95;;
30872;SDS011;17579;42.690;2.586;2022-11-02T16:10:20;0.85;;;0.77;;
30872;SDS011;17579;42.690;2.586;2022-11-02T16:15:46;1.42;;;0.88;;
30872;SDS011;17579;42.690;2.586;2022-11-02T16:21:03;2.78;;;0.90;;
30872;SDS011;17579;42.690;2.586;2022-11-02T16:23:32;1.25;;;0.80;;
30872;SDS011;17579;42.690;2.586;2022-11-02T16:26:01;2.60;;;0.73;;
30872;SDS011;17579;42.690;2.586;2022-11-02T16:28:29;3.03;;;1.10;;
30872;SDS011;17579;42.690;2.586;2022-11-02T16:33:57;1.25;;;0.90;;
30872;SDS011;17579;42.690;2.586;2022-11-02T16:36:27;2.63;;;1.30;;
30872;SDS011;17579;42.690;2.586;2022-11-02T16:39:13;1.65;;;0.80;;
30872;SDS011;17579;42.690;2.586;2022-11-02T16:41:45;2.22;;;0.85;;
30872;SDS011;17579;42.690;2.586;2022-11-02T16:44:19;1.95;;;1.42;;
30872;SDS011;17579;42.690;2.586;2022-11-02T16:46:55;3.63;;;1.08;;
30872;SDS011;17579;42.690;2.586;2022-11-02T16:52:29;1.48;;;1.10;;
30872;SDS011;17579;42.690;2.586;2022-11-02T16:54:57;2.40;;;1.50;;
30872;SDS011;17579;42.690;2.586;2022-11-02T16:57:27;2.50;;;1.98;;
30872;SDS011;17579;42.690;2.586;2022-11-02T17:00:05;7.32;;;2.58;;
30872;SDS011;17579;42.690;2.586;2022-11-02T17:02:41;4.35;;;1.92;;
30872;SDS011;17579;42.690;2.586;2022-11-02T17:10:45;6.55;;;2.78;;
30872;SDS011;17579;42.690;2.586;2022-11-02T17:13:12;4.78;;;2.70;;
30872;SDS011;17579;42.690;2.586;2022-11-02T17:15:44;5.40;;;2.63;;
30872;SDS011;17579;42.690;2.586;2022-11-02T17:18:26;5.05;;;2.40;;
30872;SDS011;17579;42.690;2.586;2022-11-02T17:23:51;3.28;;;2.13;;
30872;SDS011;17579;42.690;2.586;2022-11-02T17:26:27;2.63;;;1.35;;
30872;SDS011;17579;42.690;2.586;2022-11-02T17:28:59;3.55;;;2.03;;
30872;SDS011;17579;42.690;2.586;2022-11-02T17:31:44;4.78;;;1.90;;
30872;SDS011;17579;42.690;2.586;2022-11-02T17:34:17;3.47;;;1.65;;
30872;SDS011;17579;42.690;2.586;2022-11-02T17:36:45;3.85;;;1.52;;
30872;SDS011;17579;42.690;2.586;2022-11-02T17:39:13;2.97;;;1.45;;
30872;SDS011;17579;42.690;2.586;2022-11-02T17:41:41;4.47;;;1.30;;
30872;SDS011;17579;42.690;2.586;2022-11-02T17:44:19;1.27;;;1.00;;
30872;SDS011;17579;42.690;2.586;2022-11-02T17:46:45;1.58;;;0.88;;
30872;SDS011;17579;42.690;2.586;2022-11-02T17:49:11;1.33;;;0.90;;
30872;SDS011;17579;42.690;2.586;2022-11-02T17:51:37;1.67;;;0.70;;
30872;SDS011;17579;42.690;2.586;2022-11-02T17:54:03;1.63;;;0.80;;
30872;SDS011;17579;42.690;2.586;2022-11-02T17:56:29;1.48;;;0.95;;